ENV weather

Wendover Airport
Wendover, Utah, United States

Public forecast

Using degrees Fahrenheit for public forecast. Weather courtesy of forecast.io.

Current aviation weather report (METAR) for Wendover Airport

Retrieved 2020/04/09 06:56 UTC (41 minutes ago):

KENV 090656Z AUTO 01013G22KT 10SM CLR 14/M04 A2999 RMK AO2 SLP134 T01441039 402000044

Aviation forecast (TAF) for Wendover Airport

Retrieved 2020/04/09 06:27 UTC (1 hour ago):

TAF KENV 090524Z 0906/1006 01010KT P6SM SCT120 FM091600 10009KT P6SM SCT060 BKN120 FM100000 25010KT P6SM SCT060 SCT120